createdAt,value
2022-09-30T00:01:05.786Z,16.28
2022-09-30T00:03:32.573Z,15.91
2022-09-30T00:06:08.448Z,16.15
2022-09-30T00:08:39.841Z,17.31
2022-09-30T00:11:13.922Z,16.14
2022-09-30T00:13:41.069Z,16.50
2022-09-30T00:16:10.001Z,16.46
2022-09-30T00:18:37.943Z,17.00
2022-09-30T00:21:05.556Z,15.55
2022-09-30T00:23:32.930Z,16.18
2022-09-30T00:26:01.948Z,16.81
2022-09-30T00:28:29.867Z,16.93
2022-09-30T00:31:01.747Z,17.51
2022-09-30T00:33:28.921Z,17.54
2022-09-30T00:35:55.571Z,17.05
2022-09-30T00:38:22.245Z,17.49
2022-09-30T00:40:49.654Z,16.51
2022-09-30T00:43:21.970Z,16.07
2022-09-30T00:45:57.874Z,16.77
2022-09-30T00:48:33.741Z,16.72
2022-09-30T00:51:02.863Z,16.49
2022-09-30T00:53:41.700Z,16.47
2022-09-30T00:56:17.062Z,15.77
2022-09-30T00:58:53.054Z,15.44
2022-09-30T01:01:20.901Z,15.24
2022-09-30T01:03:52.289Z,16.45
2022-09-30T01:06:22.412Z,17.06
2022-09-30T01:08:49.479Z,17.22
2022-09-30T01:11:17.098Z,17.49
2022-09-30T01:13:47.652Z,17.14
2022-09-30T01:16:45.248Z,14.62
2022-09-30T01:19:36.230Z,15.71
2022-09-30T01:22:27.431Z,16.23
2022-09-30T01:25:23.815Z,16.13
2022-09-30T01:28:18.778Z,17.42
2022-09-30T01:31:33.860Z,16.20
2022-09-30T01:34:26.425Z,16.70
2022-09-30T01:37:13.889Z,14.98
2022-09-30T01:39:59.264Z,15.68
2022-09-30T01:42:33.854Z,15.94
2022-09-30T01:45:22.421Z,16.58
2022-09-30T01:47:56.817Z,15.56
2022-09-30T01:50:36.319Z,15.69
2022-09-30T01:53:16.194Z,16.56
2022-09-30T01:55:53.091Z,15.84
2022-09-30T01:58:33.170Z,16.09
2022-09-30T02:01:06.498Z,16.42
2022-09-30T02:03:49.001Z,17.04
2022-09-30T02:06:20.641Z,16.06
2022-09-30T02:09:03.328Z,15.84
2022-09-30T02:11:36.193Z,16.86
2022-09-30T02:14:08.998Z,16.90
2022-09-30T02:16:42.050Z,16.84
2022-09-30T02:19:18.233Z,16.33
2022-09-30T02:21:52.930Z,16.81
2022-09-30T02:24:23.903Z,17.21
2022-09-30T02:26:54.866Z,17.51
2022-09-30T02:29:28.423Z,17.72
2022-09-30T02:31:59.654Z,17.22
2022-09-30T02:34:36.163Z,17.29
2022-09-30T02:37:10.106Z,17.77
2022-09-30T02:40:06.163Z,17.07
2022-09-30T02:42:33.478Z,16.11
2022-09-30T02:45:08.807Z,17.37
2022-09-30T02:48:13.635Z,17.06
2022-09-30T02:50:51.894Z,15.92
2022-09-30T02:53:36.451Z,16.46
2022-09-30T02:56:29.305Z,16.21
2022-09-30T02:58:57.680Z,17.41
2022-09-30T03:01:25.310Z,17.54
2022-09-30T03:03:57.652Z,16.34
2022-09-30T03:06:25.257Z,16.80
2022-09-30T03:08:53.245Z,17.18
2022-09-30T03:11:24.246Z,16.81
2022-09-30T03:14:16.358Z,16.93
2022-09-30T03:17:10.316Z,16.40
2022-09-30T03:20:12.004Z,17.12
2022-09-30T03:22:57.971Z,16.82
2022-09-30T03:25:40.474Z,17.39
2022-09-30T03:28:35.387Z,17.24
2022-09-30T03:32:00.522Z,16.30
2022-09-30T03:34:44.382Z,16.72
2022-09-30T03:37:30.229Z,15.89
2022-09-30T03:39:59.612Z,15.84
2022-09-30T03:42:41.922Z,15.75
2022-09-30T03:45:20.195Z,15.72
2022-09-30T03:47:53.736Z,15.46
2022-09-30T03:50:24.643Z,15.55
2022-09-30T03:52:52.351Z,15.61
2022-09-30T03:55:20.018Z,15.94
2022-09-30T03:57:46.676Z,15.41
2022-09-30T04:00:13.944Z,16.58
2022-09-30T04:02:40.800Z,15.57
2022-09-30T04:05:08.701Z,15.53
2022-09-30T04:07:35.541Z,16.26
2022-09-30T04:10:02.458Z,15.65
2022-09-30T04:12:29.094Z,16.08
2022-09-30T04:14:55.798Z,15.17
2022-09-30T04:17:23.123Z,16.34
2022-09-30T04:19:50.277Z,15.85
2022-09-30T04:22:16.956Z,15.67
2022-09-30T04:24:43.978Z,16.76
2022-09-30T04:27:10.845Z,16.51
2022-09-30T04:29:37.554Z,16.81
2022-09-30T04:32:04.691Z,16.55
2022-09-30T04:34:31.539Z,16.79
2022-09-30T04:36:58.276Z,16.59
2022-09-30T04:39:26.259Z,16.98
2022-09-30T04:41:54.047Z,15.97
2022-09-30T04:44:21.536Z,16.61
2022-09-30T04:46:48.270Z,16.74
2022-09-30T04:49:15.011Z,15.73
2022-09-30T04:51:46.072Z,16.72
2022-09-30T04:54:13.534Z,16.36
2022-09-30T04:56:40.337Z,16.48
2022-09-30T04:59:07.365Z,16.01
2022-09-30T05:01:34.649Z,15.71
2022-09-30T05:04:01.886Z,14.93
2022-09-30T05:06:28.811Z,15.00
2022-09-30T05:08:55.633Z,14.33
2022-09-30T05:11:22.886Z,15.57
2022-09-30T05:13:51.118Z,16.01
2022-09-30T05:16:18.534Z,15.94
2022-09-30T05:18:46.183Z,15.82
2022-09-30T05:21:18.198Z,15.32
2022-09-30T05:23:45.221Z,16.17
2022-09-30T05:26:12.981Z,16.75
2022-09-30T05:28:41.929Z,16.30
2022-09-30T05:31:09.270Z,15.39
2022-09-30T05:33:36.316Z,15.18
2022-09-30T05:36:06.316Z,14.96
2022-09-30T05:38:34.333Z,14.98
2022-09-30T05:41:12.690Z,12.65
2022-09-30T05:43:41.271Z,14.43
2022-09-30T05:46:08.342Z,14.35
2022-09-30T05:48:35.099Z,14.49
2022-09-30T05:51:02.373Z,14.13
2022-09-30T05:53:32.191Z,15.93
2022-09-30T05:55:59.625Z,15.05
2022-09-30T05:58:27.849Z,14.19
2022-09-30T06:00:55.287Z,14.97
2022-09-30T06:03:22.114Z,15.20
2022-09-30T06:05:49.154Z,14.98
2022-09-30T06:08:16.032Z,14.82
2022-09-30T06:10:44.405Z,13.61
2022-09-30T06:13:11.601Z,15.21
2022-09-30T06:15:39.757Z,14.66
2022-09-30T06:18:08.001Z,15.19
2022-09-30T06:20:34.941Z,14.74
2022-09-30T06:23:02.066Z,15.77
2022-09-30T06:25:30.619Z,14.61
2022-09-30T06:27:58.293Z,15.38
2022-09-30T06:30:25.259Z,14.88
2022-09-30T06:32:52.141Z,16.42
2022-09-30T06:35:20.563Z,16.91
2022-09-30T06:37:51.477Z,15.32
2022-09-30T06:40:18.516Z,15.68
2022-09-30T06:42:45.227Z,15.20
2022-09-30T06:45:23.409Z,15.56
2022-09-30T06:48:01.316Z,18.15
2022-09-30T06:50:29.515Z,17.47
2022-09-30T06:53:01.122Z,17.85
2022-09-30T06:55:29.381Z,16.99
2022-09-30T06:57:57.402Z,17.14
2022-09-30T07:00:26.218Z,16.90
2022-09-30T07:02:56.761Z,16.48
2022-09-30T07:05:25.770Z,16.47
2022-09-30T07:07:53.347Z,17.19
2022-09-30T07:10:21.067Z,16.80
2022-09-30T07:12:51.679Z,17.56
2022-09-30T07:15:23.309Z,16.91
2022-09-30T07:18:00.691Z,17.65
2022-09-30T07:20:27.462Z,15.92
2022-09-30T07:22:54.220Z,15.50
2022-09-30T07:25:20.919Z,16.88
2022-09-30T07:27:48.028Z,18.44
2022-09-30T07:30:24.549Z,17.09
2022-09-30T07:32:53.558Z,18.13
2022-09-30T07:35:20.801Z,19.23
2022-09-30T07:37:47.743Z,15.74
2022-09-30T07:40:15.308Z,17.58
2022-09-30T07:42:45.831Z,16.94
2022-09-30T07:45:17.080Z,17.83
2022-09-30T07:47:43.973Z,20.12
2022-09-30T07:50:12.489Z,19.99
2022-09-30T07:52:39.385Z,16.51
2022-09-30T07:55:06.795Z,17.57
2022-09-30T07:57:33.506Z,16.26
2022-09-30T08:00:08.144Z,14.81
2022-09-30T08:02:46.949Z,15.58
2022-09-30T08:05:13.927Z,15.44
2022-09-30T08:07:40.680Z,18.63
2022-09-30T08:10:07.823Z,18.85
2022-09-30T08:12:35.360Z,18.46
2022-09-30T08:15:02.244Z,16.53
2022-09-30T08:17:29.205Z,16.10
2022-09-30T08:19:55.889Z,16.39
2022-09-30T08:22:23.905Z,18.41
2022-09-30T08:24:50.647Z,19.92
2022-09-30T08:27:17.382Z,18.74
2022-09-30T08:30:04.288Z,17.35
2022-09-30T08:32:31.539Z,15.30
2022-09-30T08:34:58.460Z,18.60
2022-09-30T08:37:25.162Z,16.97
2022-09-30T08:39:51.859Z,16.07
2022-09-30T08:42:37.178Z,16.20
2022-09-30T08:45:38.049Z,17.35
2022-09-30T08:48:50.765Z,16.49
2022-09-30T08:51:39.035Z,14.28
2022-09-30T08:54:13.513Z,16.04
2022-09-30T08:56:40.166Z,15.29
2022-09-30T08:59:27.079Z,17.19
2022-09-30T09:02:02.399Z,15.95
2022-09-30T09:04:29.487Z,16.85
2022-09-30T09:07:06.221Z,18.65
2022-09-30T09:10:06.381Z,16.89
2022-09-30T09:12:49.866Z,18.63
2022-09-30T09:15:42.719Z,15.62
2022-09-30T09:18:28.334Z,18.83
2022-09-30T09:21:03.397Z,17.78
2022-09-30T09:23:33.510Z,14.56
2022-09-30T09:26:00.491Z,17.09
2022-09-30T09:28:37.100Z,16.02
2022-09-30T09:31:05.131Z,16.15
2022-09-30T09:33:39.885Z,16.95
2022-09-30T09:36:12.966Z,18.38
2022-09-30T09:39:07.639Z,17.32
2022-09-30T09:41:52.607Z,16.91
2022-09-30T09:44:21.982Z,16.94
2022-09-30T09:46:55.477Z,17.98
2022-09-30T09:49:24.217Z,17.55
2022-09-30T09:52:13.161Z,19.41
2022-09-30T09:54:45.343Z,19.53
2022-09-30T09:57:15.789Z,16.78
2022-09-30T10:00:21.815Z,15.23
2022-09-30T10:03:18.527Z,18.20
2022-09-30T10:05:47.747Z,19.56
2022-09-30T10:08:21.404Z,17.38
2022-09-30T10:10:53.809Z,16.06
2022-09-30T10:13:26.487Z,17.14
2022-09-30T10:15:56.216Z,18.74
2022-09-30T10:18:28.046Z,16.76
2022-09-30T10:21:00.793Z,17.64
2022-09-30T10:23:38.039Z,20.69
2022-09-30T10:26:04.872Z,21.52
2022-09-30T10:28:44.454Z,22.57
2022-09-30T10:31:23.322Z,18.92
2022-09-30T10:34:12.010Z,20.41
2022-09-30T10:36:43.454Z,20.48
2022-09-30T10:39:34.624Z,17.21
2022-09-30T10:42:08.484Z,18.10
2022-09-30T10:44:44.430Z,19.24
2022-09-30T10:47:15.474Z,18.96
2022-09-30T10:49:57.060Z,21.02
2022-09-30T10:52:27.519Z,18.84
2022-09-30T10:55:00.365Z,19.31
2022-09-30T10:57:32.496Z,20.76
2022-09-30T11:00:05.741Z,19.95
2022-09-30T11:02:39.429Z,17.85
2022-09-30T11:05:20.342Z,18.17
2022-09-30T11:07:50.062Z,20.69
2022-09-30T11:10:42.222Z,19.92
2022-09-30T11:13:19.002Z,20.73
2022-09-30T11:16:11.065Z,19.93
2022-09-30T11:18:40.559Z,17.47
2022-09-30T11:21:37.555Z,18.50
2022-09-30T11:24:19.611Z,20.36
2022-09-30T11:27:15.296Z,21.07
2022-09-30T11:30:12.340Z,19.98
2022-09-30T11:32:52.361Z,18.61
2022-09-30T11:35:19.040Z,20.64
2022-09-30T11:37:57.664Z,19.99
2022-09-30T11:41:02.918Z,20.94
2022-09-30T11:43:29.858Z,20.55
2022-09-30T11:46:21.274Z,20.58
2022-09-30T11:48:57.143Z,19.38
2022-09-30T11:51:47.925Z,20.76
2022-09-30T11:54:43.760Z,20.06
2022-09-30T11:57:37.698Z,18.99
2022-09-30T12:00:19.162Z,16.72
2022-09-30T12:02:56.856Z,16.59
2022-09-30T12:05:34.871Z,16.22
2022-09-30T12:08:28.828Z,20.27
2022-09-30T12:11:12.583Z,18.15
2022-09-30T12:13:56.512Z,20.79
2022-09-30T12:16:30.670Z,18.88
2022-09-30T12:19:01.516Z,19.75
2022-09-30T12:21:40.437Z,17.27
2022-09-30T12:24:11.599Z,19.17
2022-09-30T12:26:41.181Z,19.38
2022-09-30T12:29:35.618Z,19.25
2022-09-30T12:32:23.400Z,18.43
2022-09-30T12:34:56.774Z,17.31
2022-09-30T12:37:58.513Z,17.39
2022-09-30T12:40:40.174Z,16.68
2022-09-30T12:43:06.835Z,18.76
2022-09-30T12:46:13.531Z,20.13
2022-09-30T12:49:01.503Z,19.02
2022-09-30T12:51:32.936Z,18.31
2022-09-30T12:54:07.416Z,18.50
2022-09-30T12:56:35.062Z,19.13
2022-09-30T12:59:03.776Z,19.77
2022-09-30T13:01:35.551Z,19.15
2022-09-30T13:04:02.260Z,16.40
2022-09-30T13:06:47.112Z,18.59
2022-09-30T13:09:16.914Z,18.82
2022-09-30T13:11:45.848Z,19.63
2022-09-30T13:14:20.251Z,16.98
2022-09-30T13:17:03.112Z,18.67
2022-09-30T13:19:40.413Z,20.06
2022-09-30T13:22:24.584Z,18.36
2022-09-30T13:24:57.779Z,18.84
2022-09-30T13:27:34.816Z,17.16
2022-09-30T13:30:03.130Z,16.60
2022-09-30T13:32:37.852Z,17.83
2022-09-30T13:35:30.558Z,19.36
2022-09-30T13:38:15.643Z,18.90
2022-09-30T13:41:04.529Z,16.63
2022-09-30T13:43:36.595Z,20.16
2022-09-30T13:46:14.910Z,16.96
2022-09-30T13:48:49.337Z,19.38
2022-09-30T13:51:18.800Z,18.31
2022-09-30T13:53:55.810Z,18.88
2022-09-30T13:56:26.624Z,20.24
2022-09-30T13:59:31.850Z,18.74
2022-09-30T14:02:13.701Z,16.81
2022-09-30T14:04:50.168Z,19.61
2022-09-30T14:07:37.724Z,19.29
2022-09-30T14:10:16.868Z,20.80
2022-09-30T14:12:50.052Z,19.91
2022-09-30T14:15:47.389Z,18.43
2022-09-30T14:18:38.175Z,16.81
2022-09-30T14:21:40.554Z,19.65
2022-09-30T14:24:17.545Z,21.24
2022-09-30T14:26:44.246Z,19.77
2022-09-30T14:29:27.962Z,20.38
2022-09-30T14:31:56.170Z,18.86
2022-09-30T14:34:25.717Z,18.55
2022-09-30T14:36:54.200Z,18.49
2022-09-30T14:39:28.290Z,18.88
2022-09-30T14:41:57.927Z,17.20
2022-09-30T14:44:29.991Z,18.33
2022-09-30T14:47:01.519Z,20.11
2022-09-30T14:49:36.083Z,21.00
2022-09-30T14:52:04.345Z,20.67
2022-09-30T14:54:33.198Z,18.79
2022-09-30T14:57:03.027Z,21.13
2022-09-30T14:59:33.227Z,21.14
2022-09-30T15:02:11.413Z,18.83
2022-09-30T15:04:42.643Z,19.07
2022-09-30T15:07:12.028Z,20.17
2022-09-30T15:09:42.267Z,19.28
2022-09-30T15:12:19.203Z,21.02
2022-09-30T15:14:51.322Z,19.72
2022-09-30T15:17:20.793Z,19.78
2022-09-30T15:19:50.256Z,17.83
2022-09-30T15:22:19.106Z,17.97
2022-09-30T15:24:48.616Z,19.33
2022-09-30T15:27:37.028Z,18.70
2022-09-30T15:30:16.877Z,20.62
2022-09-30T15:32:45.347Z,18.64
2022-09-30T15:35:17.115Z,20.44
2022-09-30T15:37:44.620Z,21.30
2022-09-30T15:40:38.899Z,19.25
2022-09-30T15:43:08.278Z,18.90
2022-09-30T15:45:37.952Z,19.98
2022-09-30T15:48:17.110Z,17.16
2022-09-30T15:50:49.750Z,18.94
2022-09-30T15:53:24.154Z,19.43
2022-09-30T15:55:59.186Z,19.51
2022-09-30T15:58:37.885Z,20.41
2022-09-30T16:01:22.112Z,19.94
2022-09-30T16:04:00.609Z,20.69
2022-09-30T16:06:36.932Z,17.07
2022-09-30T16:09:08.691Z,19.95
2022-09-30T16:11:41.323Z,18.22
2022-09-30T16:14:19.002Z,20.01
2022-09-30T16:16:55.241Z,20.38
2022-09-30T16:19:24.592Z,20.08
2022-09-30T16:21:53.074Z,20.39
2022-09-30T16:24:22.550Z,20.17
2022-09-30T16:26:50.173Z,19.67
2022-09-30T16:29:17.946Z,20.29
2022-09-30T16:31:47.550Z,19.29
2022-09-30T16:34:38.583Z,19.78
2022-09-30T16:37:18.141Z,18.70
2022-09-30T16:39:45.123Z,20.10
2022-09-30T16:42:16.394Z,20.76
2022-09-30T16:44:45.791Z,20.96
2022-09-30T16:47:14.442Z,21.32
2022-09-30T16:49:43.168Z,19.91
2022-09-30T16:52:11.550Z,19.15
2022-09-30T16:54:38.566Z,20.41
2022-09-30T16:57:05.278Z,21.06
2022-09-30T16:59:33.039Z,19.99
2022-09-30T17:02:01.136Z,20.64
2022-09-30T17:04:28.289Z,21.28
2022-09-30T17:06:57.408Z,19.85
2022-09-30T17:09:24.159Z,19.91
2022-09-30T17:11:53.255Z,19.58
2022-09-30T17:14:20.036Z,19.38
2022-09-30T17:16:48.371Z,19.69
2022-09-30T17:19:16.094Z,19.94
2022-09-30T17:21:42.962Z,19.65
2022-09-30T17:24:09.681Z,20.21
2022-09-30T17:26:37.094Z,20.57
2022-09-30T17:29:21.002Z,20.67
2022-09-30T17:31:53.816Z,20.46
2022-09-30T17:34:20.664Z,20.03
2022-09-30T17:36:47.988Z,20.01
2022-09-30T17:39:14.752Z,21.28
2022-09-30T17:41:59.975Z,21.50
2022-09-30T17:44:26.906Z,21.78
2022-09-30T17:47:00.180Z,20.67
2022-09-30T17:49:35.582Z,20.26
2022-09-30T17:52:04.254Z,19.79
2022-09-30T17:54:31.729Z,20.59
2022-09-30T17:56:58.619Z,20.64
2022-09-30T17:59:27.009Z,20.53
2022-09-30T18:01:56.502Z,20.35
2022-09-30T18:04:26.190Z,19.21
2022-09-30T18:06:54.300Z,20.10
2022-09-30T18:09:21.756Z,20.90
2022-09-30T18:11:50.302Z,20.11
2022-09-30T18:14:17.780Z,20.44
2022-09-30T18:16:45.690Z,20.10
2022-09-30T18:21:44.305Z,19.27
2022-09-30T18:24:11.030Z,16.56
2022-09-30T18:26:37.773Z,16.12
2022-09-30T18:29:06.182Z,18.90
2022-09-30T18:31:37.960Z,18.52
2022-09-30T18:34:06.276Z,17.85
2022-09-30T18:36:33.604Z,17.83
2022-09-30T18:39:02.904Z,18.04
2022-09-30T18:41:32.058Z,19.32
2022-09-30T18:44:03.255Z,17.41
2022-09-30T18:46:31.796Z,16.85
2022-09-30T18:48:58.612Z,17.67
2022-09-30T18:51:25.527Z,18.74
2022-09-30T18:53:56.089Z,19.24
2022-09-30T18:56:24.430Z,20.10
2022-09-30T18:58:54.267Z,19.77
2022-09-30T19:01:21.194Z,18.96
2022-09-30T19:03:49.251Z,20.01
2022-09-30T19:06:16.135Z,19.86
2022-09-30T19:08:43.628Z,18.98
2022-09-30T19:11:14.715Z,20.61
2022-09-30T19:13:43.260Z,20.50
2022-09-30T19:16:11.185Z,16.93
2022-09-30T19:18:39.817Z,20.31
2022-09-30T19:21:12.197Z,19.14
2022-09-30T19:23:40.232Z,18.65
2022-09-30T19:26:10.181Z,19.49
2022-09-30T19:28:38.301Z,19.86
2022-09-30T19:31:10.495Z,20.30
2022-09-30T19:33:38.520Z,20.74
2022-09-30T19:36:17.510Z,20.38
2022-09-30T19:38:46.240Z,20.45
2022-09-30T19:41:18.654Z,20.13
2022-09-30T19:43:49.710Z,20.49
2022-09-30T19:46:17.448Z,19.39
2022-09-30T19:48:45.213Z,19.57
2022-09-30T19:51:14.379Z,19.80
2022-09-30T19:53:45.597Z,20.27
2022-09-30T19:56:16.942Z,17.35
2022-09-30T19:58:47.677Z,20.17
2022-09-30T20:01:18.842Z,20.22
2022-09-30T20:03:46.070Z,20.34
2022-09-30T20:06:15.261Z,19.64
2022-09-30T20:08:44.904Z,19.93
2022-09-30T20:11:17.783Z,19.13
2022-09-30T20:13:44.507Z,20.42
2022-09-30T20:16:13.845Z,19.85
2022-09-30T20:18:42.068Z,19.80
2022-09-30T20:21:10.506Z,20.44
2022-09-30T20:23:40.805Z,19.74
2022-09-30T20:26:17.747Z,20.16
2022-09-30T20:28:44.478Z,19.72
2022-09-30T20:31:15.251Z,20.33
2022-09-30T20:33:42.830Z,19.64
2022-09-30T20:36:11.048Z,20.41
2022-09-30T20:38:38.986Z,18.98
2022-09-30T20:41:06.298Z,19.09
2022-09-30T20:43:34.003Z,18.77
2022-09-30T20:46:04.201Z,17.93
2022-09-30T20:48:33.652Z,18.72
2022-09-30T20:51:07.805Z,18.64
2022-09-30T20:53:36.594Z,17.91
2022-09-30T20:56:04.168Z,19.39
2022-09-30T20:58:30.876Z,19.14
2022-09-30T21:01:05.522Z,18.63
2022-09-30T21:03:39.014Z,18.16
2022-09-30T21:06:08.192Z,19.45
2022-09-30T21:08:39.514Z,19.33
2022-09-30T21:11:07.576Z,19.71
2022-09-30T21:13:35.323Z,20.32
2022-09-30T21:16:04.490Z,19.91
2022-09-30T21:18:32.036Z,19.14
2022-09-30T21:21:00.831Z,20.32
2022-09-30T21:23:33.303Z,20.44
2022-09-30T21:26:06.268Z,19.95
2022-09-30T21:28:33.286Z,19.65
2022-09-30T21:31:08.221Z,20.10
2022-09-30T21:33:36.150Z,19.55
2022-09-30T21:36:05.320Z,19.51
2022-09-30T21:38:34.302Z,19.87
2022-09-30T21:41:03.525Z,19.43
2022-09-30T21:43:31.862Z,18.15
2022-09-30T21:46:03.552Z,18.80
2022-09-30T21:48:32.579Z,18.94
2022-09-30T21:51:00.298Z,19.36
2022-09-30T21:53:27.919Z,19.66
2022-09-30T21:55:56.229Z,19.18
2022-09-30T21:58:25.327Z,18.59
2022-09-30T22:00:55.885Z,19.35
2022-09-30T22:03:23.550Z,18.08
2022-09-30T22:05:54.254Z,19.53
2022-09-30T22:08:22.206Z,17.44
2022-09-30T22:10:51.032Z,19.31
2022-09-30T22:13:18.716Z,18.95
2022-09-30T22:15:46.817Z,19.76
2022-09-30T22:18:19.584Z,19.70
2022-09-30T22:20:48.540Z,19.70
2022-09-30T22:23:15.372Z,19.68
2022-09-30T22:25:42.155Z,19.38
2022-09-30T22:28:09.096Z,18.97
2022-09-30T22:30:36.093Z,19.18
2022-09-30T22:33:21.065Z,17.89
2022-09-30T22:36:06.191Z,19.74
2022-09-30T22:38:32.880Z,18.59
2022-09-30T22:40:59.693Z,19.05
2022-09-30T22:43:26.962Z,19.10
2022-09-30T22:46:03.828Z,18.27
2022-09-30T22:48:31.267Z,19.25
2022-09-30T22:50:59.173Z,19.93
2022-09-30T22:53:27.061Z,19.18
2022-09-30T22:55:54.123Z,19.46
2022-09-30T22:58:26.954Z,19.76
2022-09-30T23:00:56.281Z,20.11
2022-09-30T23:03:25.471Z,19.13
2022-09-30T23:05:53.088Z,19.24
2022-09-30T23:08:20.193Z,19.78
2022-09-30T23:10:50.725Z,19.18
2022-09-30T23:13:20.108Z,18.27
2022-09-30T23:15:50.411Z,17.40
2022-09-30T23:18:17.342Z,18.95
2022-09-30T23:20:54.566Z,18.53
2022-09-30T23:23:21.245Z,19.13
2022-09-30T23:25:47.934Z,19.53
2022-09-30T23:28:14.765Z,19.27
2022-09-30T23:30:41.440Z,18.70
2022-09-30T23:33:10.136Z,18.92
2022-09-30T23:35:36.835Z,19.25
2022-09-30T23:38:03.483Z,17.94
2022-09-30T23:40:31.359Z,18.78
2022-09-30T23:42:58.057Z,17.89
2022-09-30T23:45:24.851Z,18.26
2022-09-30T23:47:51.644Z,18.98
2022-09-30T23:50:18.339Z,19.02
2022-09-30T23:52:45.136Z,19.03
2022-09-30T23:55:11.794Z,18.48
2022-09-30T23:57:38.559Z,19.00
